createdAt,value
2023-04-18T00:01:15.085Z,10.48
2023-04-18T00:06:19.459Z,10.48
2023-04-18T00:11:22.974Z,10.28
2023-04-18T00:16:28.542Z,10.22
2023-04-18T00:21:32.268Z,10.19
2023-04-18T00:26:35.802Z,10.24
2023-04-18T00:31:40.711Z,10.32
2023-04-18T00:36:43.883Z,10.28
2023-04-18T00:41:47.334Z,10.13
2023-04-18T00:46:52.258Z,10.18
2023-04-18T00:51:56.017Z,10.24
2023-04-18T00:56:59.484Z,10.18
2023-04-18T01:02:05.500Z,10.21
2023-04-18T01:07:09.542Z,10.15
2023-04-18T01:12:13.054Z,10.21
2023-04-18T01:17:18.109Z,10.24
2023-04-18T01:22:21.799Z,10.20
2023-04-18T01:27:26.829Z,10.18
2023-04-18T01:32:30.434Z,10.12
2023-04-18T01:37:34.104Z,10.12
2023-04-18T01:42:39.222Z,10.18
2023-04-18T01:47:42.644Z,10.20
2023-04-18T01:52:46.131Z,10.27
2023-04-18T01:57:51.962Z,10.28
2023-04-18T02:02:55.583Z,10.19
2023-04-18T02:07:59.392Z,10.19
2023-04-18T02:13:04.356Z,10.26
2023-04-18T02:18:09.716Z,10.15
2023-04-18T02:23:13.632Z,9.87
2023-04-18T02:28:18.486Z,9.96
2023-04-18T02:33:21.658Z,10.01
2023-04-18T02:38:25.184Z,9.87
2023-04-18T02:43:30.238Z,9.96
2023-04-18T02:48:33.449Z,10.04
2023-04-18T02:53:37.110Z,10.06
2023-04-18T02:58:42.016Z,10.22
2023-04-18T03:03:45.208Z,10.34
2023-04-18T03:08:48.779Z,10.32
2023-04-18T03:13:55.225Z,10.47
2023-04-18T03:18:58.684Z,10.48
2023-04-18T03:24:02.412Z,10.43
2023-04-18T03:29:07.616Z,10.70
2023-04-18T03:34:11.245Z,10.71
2023-04-18T03:39:15.130Z,10.74
2023-04-18T03:44:20.320Z,10.80
2023-04-18T03:49:24.037Z,10.59
2023-04-18T03:54:27.644Z,10.42
2023-04-18T03:59:32.580Z,10.39
2023-04-18T04:04:35.766Z,10.24
2023-04-18T04:09:39.217Z,10.32
2023-04-18T04:14:44.281Z,10.56
2023-04-18T04:19:47.766Z,10.68
2023-04-18T04:24:51.941Z,10.64
2023-04-18T04:29:57.341Z,10.96
2023-04-18T04:35:00.983Z,11.03
2023-04-18T04:40:06.478Z,11.21
2023-04-18T04:45:12.647Z,11.51
2023-04-18T04:50:16.745Z,11.55
2023-04-18T04:55:20.437Z,12.27
2023-04-18T05:00:25.650Z,12.94
2023-04-18T05:05:29.396Z,14.19
2023-04-18T05:10:33.263Z,15.56
2023-04-18T05:15:38.236Z,15.85
2023-04-18T05:20:41.810Z,16.42
2023-04-18T05:25:45.355Z,17.17
2023-04-18T05:30:50.256Z,19.13
2023-04-18T05:35:53.874Z,20.35
2023-04-18T05:41:00.422Z,23.12
2023-04-18T05:46:05.667Z,25.72
2023-04-18T05:51:11.452Z,27.85
2023-04-18T05:56:15.654Z,32.02
2023-04-18T06:01:21.702Z,32.46
2023-04-18T06:06:25.970Z,32.29
2023-04-18T06:11:33.599Z,32.85
2023-04-18T06:16:39.271Z,32.24
2023-04-18T06:21:43.224Z,29.39
2023-04-18T06:26:47.491Z,30.55
2023-04-18T06:31:52.724Z,31.77
2023-04-18T06:36:56.715Z,30.16
2023-04-18T06:42:00.205Z,32.60
2023-04-18T06:47:05.756Z,36.10
2023-04-18T06:52:12.219Z,37.08
2023-04-18T06:57:15.862Z,37.98
2023-04-18T07:02:20.965Z,35.98
2023-04-18T07:07:26.558Z,31.78
2023-04-18T07:12:30.097Z,28.85
2023-04-18T07:17:35.633Z,26.10
2023-04-18T07:22:41.439Z,23.90
2023-04-18T07:27:45.736Z,22.57
2023-04-18T07:32:50.805Z,20.94
2023-04-18T07:37:54.688Z,19.87
2023-04-18T07:42:58.300Z,19.15
2023-04-18T07:48:03.556Z,18.61
2023-04-18T07:53:08.650Z,18.15
2023-04-18T07:58:12.348Z,17.73
2023-04-18T08:03:17.817Z,17.26
2023-04-18T08:08:21.664Z,16.95
2023-04-18T08:13:25.581Z,16.78
2023-04-18T08:18:30.554Z,16.98
2023-04-18T08:23:34.035Z,16.90
2023-04-18T08:28:38.022Z,16.74
2023-04-18T08:33:43.757Z,16.33
2023-04-18T08:38:47.769Z,16.02
2023-04-18T08:43:51.276Z,16.10
2023-04-18T08:48:58.724Z,15.91
2023-04-18T08:54:04.744Z,15.93
2023-04-18T08:59:09.731Z,16.05
2023-04-18T09:04:31.908Z,16.00
2023-04-18T09:09:46.777Z,16.43
2023-04-18T09:14:51.640Z,16.64
2023-04-18T09:19:56.866Z,16.78
2023-04-18T09:25:00.518Z,17.04
2023-04-18T09:30:04.433Z,17.10
2023-04-18T09:35:10.453Z,17.52
2023-04-18T09:40:19.159Z,17.83
2023-04-18T09:45:25.498Z,18.29
2023-04-18T09:50:31.372Z,18.83
2023-04-18T09:55:35.614Z,19.29
2023-04-18T10:00:40.183Z,18.54
2023-04-18T10:05:46.114Z,19.60
2023-04-18T10:10:49.637Z,19.94
2023-04-18T10:15:54.820Z,20.25
2023-04-18T10:21:04.856Z,19.92
2023-04-18T10:26:09.216Z,19.27
2023-04-18T10:31:12.999Z,18.88
2023-04-18T10:36:20.632Z,19.25
2023-04-18T10:41:26.589Z,19.30
2023-04-18T10:46:32.804Z,18.85
2023-04-18T10:51:38.441Z,18.66
2023-04-18T10:56:42.185Z,18.53
2023-04-18T11:01:50.600Z,18.65
2023-04-18T11:06:58.446Z,18.74
2023-04-18T11:12:07.081Z,18.65
2023-04-18T11:17:21.034Z,18.89
2023-04-18T11:22:26.512Z,19.05
2023-04-18T11:27:31.358Z,18.81
2023-04-18T11:32:36.109Z,18.75
2023-04-18T11:37:42.038Z,18.57
2023-04-18T11:42:48.496Z,18.68
2023-04-18T11:47:58.283Z,18.66
2023-04-18T11:53:03.305Z,18.59
2023-04-18T11:58:07.578Z,18.57
2023-04-18T12:03:18.014Z,18.72
2023-04-18T12:08:23.193Z,18.96
2023-04-18T12:13:28.295Z,18.53
2023-04-18T12:18:32.824Z,18.53
2023-04-18T12:23:40.510Z,18.62
2023-04-18T12:28:48.197Z,18.42
2023-04-18T12:33:51.786Z,18.50
2023-04-18T12:38:57.072Z,18.12
2023-04-18T12:44:01.760Z,17.89
2023-04-18T12:49:05.681Z,17.89
2023-04-18T12:54:10.617Z,17.93
2023-04-18T12:59:14.569Z,18.22
2023-04-18T13:04:18.996Z,18.09
2023-04-18T13:09:27.053Z,18.24
2023-04-18T13:14:30.750Z,17.92
2023-04-18T13:19:34.780Z,17.61
2023-04-18T13:24:39.731Z,17.31
2023-04-18T13:29:45.809Z,17.00
2023-04-18T13:34:50.212Z,16.72
2023-04-18T13:39:55.121Z,16.73
2023-04-18T13:45:00.170Z,16.86
2023-04-18T13:50:04.349Z,17.12
2023-04-18T13:55:12.575Z,17.19
2023-04-18T14:00:19.676Z,16.76
2023-04-18T14:05:24.097Z,16.61
2023-04-18T14:10:29.212Z,16.46
2023-04-18T14:15:33.425Z,16.38
2023-04-18T14:20:37.725Z,16.06
2023-04-18T14:25:42.706Z,15.89
2023-04-18T14:30:46.516Z,15.55
2023-04-18T14:35:50.096Z,15.51
2023-04-18T14:40:55.472Z,15.43
2023-04-18T14:45:59.840Z,15.23
2023-04-18T14:51:03.676Z,14.93
2023-04-18T14:56:09.241Z,14.70
2023-04-18T15:01:13.006Z,14.56
2023-04-18T15:06:16.807Z,14.56
2023-04-18T15:11:22.013Z,14.41
2023-04-18T15:16:26.002Z,14.36
2023-04-18T15:21:29.763Z,14.46
2023-04-18T15:26:34.762Z,14.35
2023-04-18T15:31:39.152Z,14.29
2023-04-18T15:36:43.292Z,14.29
2023-04-18T15:41:52.757Z,14.29
2023-04-18T15:46:56.348Z,14.30
2023-04-18T15:51:59.826Z,14.24
2023-04-18T15:57:04.769Z,14.27
2023-04-18T16:02:09.909Z,14.23
2023-04-18T16:07:13.690Z,14.15
2023-04-18T16:12:19.422Z,14.06
2023-04-18T16:17:23.055Z,13.92
2023-04-18T16:22:26.608Z,13.83
2023-04-18T16:27:32.287Z,13.76
2023-04-18T16:32:35.938Z,13.58
2023-04-18T16:37:39.900Z,13.51
2023-04-18T16:42:44.920Z,13.29
2023-04-18T16:47:48.615Z,13.16
2023-04-18T16:52:52.259Z,13.22
2023-04-18T16:57:57.517Z,12.91
2023-04-18T17:03:01.841Z,12.91
2023-04-18T17:08:05.836Z,12.89
2023-04-18T17:13:10.888Z,12.87
2023-04-18T17:18:15.181Z,12.76
2023-04-18T17:23:18.808Z,12.72
2023-04-18T17:28:25.954Z,12.71
2023-04-18T17:33:29.529Z,12.54
2023-04-18T17:38:33.212Z,12.57
2023-04-18T17:43:38.377Z,12.53
2023-04-18T17:48:42.360Z,12.50
2023-04-18T17:53:46.123Z,12.41
2023-04-18T17:58:51.679Z,12.38
2023-04-18T18:03:55.825Z,12.30
2023-04-18T18:08:59.748Z,12.29
2023-04-18T18:14:04.733Z,12.31
2023-04-18T18:19:08.493Z,12.29
2023-04-18T18:24:12.552Z,12.34
2023-04-18T18:29:19.601Z,12.36
2023-04-18T18:34:23.219Z,12.28
2023-04-18T18:39:27.759Z,12.24
2023-04-18T18:44:33.760Z,12.25
2023-04-18T18:49:37.580Z,12.32
2023-04-18T18:54:41.123Z,12.29
2023-04-18T18:59:46.197Z,12.23
2023-04-18T19:04:49.879Z,12.12
2023-04-18T19:09:55.375Z,12.11
2023-04-18T19:15:00.349Z,12.11
2023-04-18T19:20:04.574Z,11.86
2023-04-18T19:25:11.047Z,11.66
2023-04-18T19:30:15.930Z,11.54
2023-04-18T19:35:19.475Z,11.46
2023-04-18T19:40:26.743Z,11.43
2023-04-18T19:45:32.068Z,11.34
2023-04-18T19:50:35.605Z,11.18
2023-04-18T19:55:39.422Z,11.00
2023-04-18T20:00:44.381Z,11.04
2023-04-18T20:05:48.024Z,11.04
2023-04-18T20:10:51.558Z,10.97
2023-04-18T20:15:56.687Z,11.01
2023-04-18T20:21:00.239Z,10.98
2023-04-18T20:26:04.582Z,10.97
2023-04-18T20:31:09.648Z,11.01
2023-04-18T20:36:14.227Z,10.97
2023-04-18T20:41:18.335Z,10.59
2023-04-18T20:46:23.504Z,10.68
2023-04-18T20:51:28.060Z,10.67
2023-04-18T20:56:32.141Z,10.67
2023-04-18T21:01:37.366Z,10.64
2023-04-18T21:06:40.896Z,10.62
2023-04-18T21:11:44.467Z,10.68
2023-04-18T21:16:49.734Z,10.62
2023-04-18T21:21:53.222Z,10.59
2023-04-18T21:26:57.897Z,10.67
2023-04-18T21:32:02.797Z,10.67
2023-04-18T21:37:06.390Z,10.65
2023-04-18T21:42:10.037Z,10.59
2023-04-18T21:47:14.960Z,10.59
2023-04-18T21:52:18.145Z,10.55
2023-04-18T21:57:21.652Z,10.43
2023-04-18T22:02:26.985Z,10.48
2023-04-18T22:07:31.204Z,10.43
2023-04-18T22:12:35.396Z,10.41
2023-04-18T22:17:41.847Z,10.35
2023-04-18T22:22:45.572Z,10.25
2023-04-18T22:27:49.050Z,10.28
2023-04-18T22:32:54.101Z,10.24
2023-04-18T22:37:57.729Z,10.18
2023-04-18T22:43:01.450Z,10.09
2023-04-18T22:48:11.475Z,10.24
2023-04-18T22:53:15.500Z,10.27
2023-04-18T22:58:19.042Z,10.35
2023-04-18T23:03:24.130Z,10.32
2023-04-18T23:08:28.722Z,10.19
2023-04-18T23:13:33.617Z,10.29
2023-04-18T23:18:38.585Z,10.35
2023-04-18T23:23:42.104Z,10.21
2023-04-18T23:28:45.596Z,10.25
2023-04-18T23:33:50.668Z,10.25
2023-04-18T23:38:54.209Z,10.18
2023-04-18T23:43:57.753Z,10.16
2023-04-18T23:49:02.656Z,10.19
2023-04-18T23:54:05.911Z,10.06
2023-04-18T23:59:09.386Z,10.00
